Time;durP1;ratioP1;P1;durP2;ratioP2;P2;SDS_P1;SDS_P2;PMS_P1;PMS_P2;Temp;Humidity;BMP_temperature;BMP_pressure;BME280_temperature;BME280_humidity;BME280_pressure;Samples;Min_cycle;Max_cycle;Signal;HPM_P1;HPM_P2
2021/08/17 00:00:38;;;;;;;20.92;4.15;;;13.80;99.90;;;;;;5096503;27;20151;-67
2021/08/17 00:03:04;;;;;;;16.92;3.50;;;13.70;99.90;;;;;;5097649;28;20779;-66
2021/08/17 00:05:30;;;;;;;20.88;3.85;;;13.70;99.90;;;;;;5097082;28;20119;-66
2021/08/17 00:07:55;;;;;;;21.85;3.65;;;13.70;99.90;;;;;;5095316;27;20466;-66
2021/08/17 00:10:22;;;;;;;17.90;3.97;;;13.70;99.90;;;;;;5097223;27;20097;-66
2021/08/17 00:12:49;;;;;;;18.40;3.00;;;13.70;99.90;;;;;;5095618;28;20458;-66
2021/08/17 00:15:15;;;;;;;20.40;3.60;;;13.60;99.90;;;;;;5094781;28;20043;-67
2021/08/17 00:17:41;;;;;;;20.98;3.17;;;13.60;99.90;;;;;;5096940;28;20047;-67
2021/08/17 00:20:08;;;;;;;17.30;3.50;;;13.60;99.90;;;;;;5101031;27;20433;-66
2021/08/17 00:22:37;;;;;;;12.02;3.65;;;13.60;99.90;;;;;;5097329;27;20051;-67
2021/08/17 00:25:04;;;;;;;15.73;3.45;;;13.60;99.90;;;;;;5095903;28;20043;-67
2021/08/17 00:27:30;;;;;;;15.65;2.78;;;13.50;99.90;;;;;;5099639;28;20036;-66
2021/08/17 00:29:55;;;;;;;12.82;3.60;;;13.50;99.90;;;;;;5099347;27;20054;-67
2021/08/17 00:32:21;;;;;;;15.98;3.20;;;13.40;99.90;;;;;;5098014;28;20035;-66
2021/08/17 00:34:46;;;;;;;24.27;3.90;;;13.40;99.90;;;;;;5095922;28;20047;-66
2021/08/17 00:37:18;;;;;;;19.40;3.15;;;13.40;99.90;;;;;;5095830;28;20048;-66
2021/08/17 00:39:44;;;;;;;16.38;2.75;;;13.40;99.90;;;;;;5098687;28;20036;-66
2021/08/17 00:42:11;;;;;;;14.70;2.90;;;13.30;99.90;;;;;;5093414;28;20469;-66
2021/08/17 00:44:36;;;;;;;14.00;3.00;;;13.20;99.90;;;;;;5094659;27;20046;-66
2021/08/17 00:47:02;;;;;;;19.92;3.50;;;13.20;99.90;;;;;;5094919;28;20040;-66
2021/08/17 00:49:28;;;;;;;16.63;2.78;;;13.20;99.90;;;;;;5098153;27;20031;-66
2021/08/17 00:51:55;;;;;;;18.98;2.88;;;13.20;99.90;;;;;;5096331;28;20036;-66
2021/08/17 00:54:26;;;;;;;13.20;3.22;;;13.20;99.90;;;;;;5096053;27;20040;-66
2021/08/17 00:56:59;;;;;;;13.77;2.88;;;13.20;99.90;;;;;;5095446;28;20186;-66
2021/08/17 00:59:27;;;;;;;14.63;2.92;;;13.10;99.90;;;;;;5096831;27;20178;-66
2021/08/17 01:01:52;;;;;;;17.13;3.17;;;13.20;99.90;;;;;;5095065;28;20040;-66
2021/08/17 01:04:18;;;;;;;15.02;3.30;;;13.10;99.90;;;;;;5099030;28;20088;-66
2021/08/17 01:06:44;;;;;;;16.42;2.92;;;13.10;99.90;;;;;;5096016;28;20084;-66
2021/08/17 01:09:11;;;;;;;11.30;2.35;;;13.10;99.90;;;;;;5098366;28;20481;-66
2021/08/17 01:11:44;;;;;;;15.50;2.88;;;13.10;99.90;;;;;;5097207;28;20039;-66
2021/08/17 01:14:09;;;;;;;24.98;2.83;;;13.10;99.90;;;;;;5096281;28;20101;-66
2021/08/17 01:16:35;;;;;;;18.85;3.05;;;13.10;99.90;;;;;;5095238;28;20047;-66
2021/08/17 01:19:01;;;;;;;14.75;3.15;;;13.10;99.90;;;;;;5096358;28;20093;-66
2021/08/17 01:21:30;;;;;;;18.55;3.88;;;13.10;99.90;;;;;;5093286;28;20036;-66
2021/08/17 01:23:56;;;;;;;17.88;3.65;;;13.10;99.90;;;;;;5093234;28;20713;-66
2021/08/17 01:26:22;;;;;;;13.10;3.15;;;13.00;99.90;;;;;;5096318;28;20036;-66
2021/08/17 01:28:47;;;;;;;12.98;2.45;;;13.00;99.90;;;;;;5097075;28;20046;-66
2021/08/17 01:31:13;;;;;;;15.18;3.22;;;13.10;99.90;;;;;;5097934;28;20106;-66
2021/08/17 01:33:39;;;;;;;13.10;2.40;;;13.10;99.90;;;;;;5097106;28;20036;-66
2021/08/17 01:36:05;;;;;;;11.25;3.50;;;13.10;99.90;;;;;;5093170;28;20516;-66
2021/08/17 01:38:30;;;;;;;13.48;2.58;;;13.10;99.90;;;;;;5096732;28;20371;-66
2021/08/17 01:40:56;;;;;;;15.25;3.30;;;13.20;99.90;;;;;;5094819;28;20044;-66
2021/08/17 01:43:22;;;;;;;13.30;2.45;;;13.20;99.90;;;;;;5094730;28;20096;-66
2021/08/17 01:45:59;;;;;;;11.50;2.60;;;13.20;99.90;;;;;;5097088;27;20102;-66
2021/08/17 01:48:26;;;;;;;19.05;3.95;;;13.30;99.90;;;;;;5093985;27;20055;-66
2021/08/17 01:50:53;;;;;;;13.77;2.90;;;13.30;99.90;;;;;;5096836;28;20044;-66
2021/08/17 01:53:19;;;;;;;13.07;3.75;;;13.30;99.90;;;;;;5099234;28;20119;-66
2021/08/17 01:55:45;;;;;;;14.77;2.65;;;13.30;99.90;;;;;;5094773;28;20071;-66
2021/08/17 01:58:10;;;;;;;11.43;2.13;;;13.30;99.90;;;;;;5098433;27;20128;-67
2021/08/17 02:00:37;;;;;;;14.75;2.40;;;13.40;99.90;;;;;;5096457;28;20039;-66
2021/08/17 02:03:03;;;;;;;17.00;3.22;;;13.40;99.90;;;;;;5098617;28;20100;-66
2021/08/17 02:05:28;;;;;;;10.98;2.88;;;13.40;99.90;;;;;;5096779;28;20054;-66
2021/08/17 02:07:56;;;;;;;15.27;2.47;;;13.40;99.90;;;;;;5097821;28;20047;-66
2021/08/17 02:10:22;;;;;;;14.25;2.50;;;13.40;99.90;;;;;;5095443;28;20035;-66
2021/08/17 02:12:47;;;;;;;14.52;3.25;;;13.40;99.90;;;;;;5093268;28;20158;-66
2021/08/17 02:15:13;;;;;;;11.68;2.35;;;13.50;99.90;;;;;;5098045;28;20168;-66
2021/08/17 02:17:39;;;;;;;14.43;3.25;;;13.50;99.90;;;;;;5096053;28;20040;-66
2021/08/17 02:20:06;;;;;;;15.00;2.40;;;13.50;99.90;;;;;;5096170;28;20051;-66
2021/08/17 02:22:31;;;;;;;9.82;1.92;;;13.50;99.90;;;;;;5094428;28;20035;-66
2021/08/17 02:24:57;;;;;;;14.50;2.60;;;13.60;99.90;;;;;;5093682;28;20478;-66
2021/08/17 02:27:23;;;;;;;14.48;2.00;;;13.50;99.90;;;;;;5095805;28;20105;-66
2021/08/17 02:29:48;;;;;;;13.77;2.58;;;13.50;99.90;;;;;;5095980;28;20044;-66
2021/08/17 02:32:14;;;;;;;14.70;2.35;;;13.50;99.90;;;;;;5105560;28;20546;-66
2021/08/17 02:34:40;;;;;;;11.88;2.17;;;13.50;99.90;;;;;;5100824;28;20036;-66
2021/08/17 02:37:05;;;;;;;12.40;2.53;;;13.50;99.90;;;;;;5102274;28;20035;-66
2021/08/17 02:39:31;;;;;;;8.75;2.22;;;13.50;99.90;;;;;;5100112;28;20046;-66
2021/08/17 02:41:57;;;;;;;14.02;1.65;;;13.50;99.90;;;;;;5100858;28;20093;-66
2021/08/17 02:44:22;;;;;;;8.88;1.65;;;13.50;99.90;;;;;;5100972;28;20097;-66
2021/08/17 02:46:48;;;;;;;8.95;2.20;;;13.40;99.90;;;;;;5104287;28;20062;-66
2021/08/17 02:49:14;;;;;;;11.98;2.10;;;13.40;99.90;;;;;;5106910;28;20137;-66
2021/08/17 02:51:39;;;;;;;12.00;3.00;;;13.40;99.90;;;;;;5101531;28;20040;-66
2021/08/17 02:54:05;;;;;;;15.48;2.53;;;13.30;99.90;;;;;;5099765;28;20036;-66
2021/08/17 02:56:31;;;;;;;10.82;1.67;;;13.30;99.90;;;;;;5101193;28;20089;-66
2021/08/17 02:58:56;;;;;;;11.73;1.85;;;13.20;99.90;;;;;;5100035;28;20028;-66
2021/08/17 03:01:22;;;;;;;9.90;1.98;;;13.20;99.90;;;;;;5106363;28;20507;-66
2021/08/17 03:03:48;;;;;;;8.18;1.40;;;13.20;99.90;;;;;;5101384;28;20112;-67
2021/08/17 03:06:13;;;;;;;10.20;2.10;;;13.10;99.90;;;;;;5102081;28;20071;-67
2021/08/17 03:08:39;;;;;;;10.35;1.60;;;13.10;99.90;;;;;;5101792;28;20047;-67
2021/08/17 03:11:05;;;;;;;13.82;1.90;;;13.10;99.90;;;;;;5102331;28;20066;-66
2021/08/17 03:13:31;;;;;;;13.45;1.90;;;13.10;99.90;;;;;;5105167;28;20067;-66
2021/08/17 03:15:57;;;;;;;13.50;2.20;;;13.10;99.90;;;;;;5104378;28;20138;-66
2021/08/17 03:18:23;;;;;;;16.65;2.25;;;13.10;99.90;;;;;;5101177;28;20469;-66
2021/08/17 03:20:50;;;;;;;16.92;2.22;;;13.00;99.90;;;;;;5098522;28;20043;-66
2021/08/17 03:23:17;;;;;;;11.98;2.42;;;13.00;99.90;;;;;;5103949;28;20046;-66
2021/08/17 03:25:43;;;;;;;13.20;2.53;;;13.00;99.90;;;;;;5102948;27;20048;-66
2021/08/17 03:28:09;;;;;;;10.68;2.10;;;13.00;99.90;;;;;;5104933;28;20044;-67
2021/08/17 03:30:36;;;;;;;15.40;2.53;;;13.00;99.90;;;;;;5103178;28;20106;-66
2021/08/17 03:33:02;;;;;;;12.75;2.13;;;13.00;99.90;;;;;;5109104;28;20490;-66
2021/08/17 03:35:28;;;;;;;13.27;2.10;;;13.00;99.90;;;;;;5107895;28;20044;-66
2021/08/17 03:37:54;;;;;;;10.52;1.77;;;12.90;99.90;;;;;;5105783;28;20466;-66
2021/08/17 03:40:21;;;;;;;10.18;1.63;;;12.90;99.90;;;;;;5105669;28;20031;-66
2021/08/17 03:42:48;;;;;;;13.52;2.53;;;13.00;99.90;;;;;;5101530;28;20042;-66
2021/08/17 03:45:16;;;;;;;11.93;2.20;;;12.90;99.90;;;;;;5108822;27;20404;-66
2021/08/17 03:47:42;;;;;;;12.77;2.03;;;12.90;99.90;;;;;;5105862;28;20043;-66
2021/08/17 03:50:10;;;;;;;12.20;2.20;;;12.90;99.90;;;;;;5106465;28;20489;-66
2021/08/17 03:52:37;;;;;;;17.45;1.95;;;12.90;99.90;;;;;;5107902;28;20063;-66
2021/08/17 03:55:03;;;;;;;7.57;1.50;;;12.90;99.90;;;;;;5105445;28;20130;-66
2021/08/17 03:57:28;;;;;;;10.35;1.95;;;12.90;99.90;;;;;;5102580;28;20043;-66
2021/08/17 03:59:54;;;;;;;11.43;1.98;;;12.90;99.90;;;;;;5108132;28;20397;-66
2021/08/17 04:02:19;;;;;;;14.43;2.67;;;12.90;99.90;;;;;;5105467;28;20027;-66
2021/08/17 04:04:45;;;;;;;9.85;2.42;;;12.90;99.90;;;;;;5105509;27;20125;-66
2021/08/17 04:07:12;;;;;;;10.77;1.55;;;12.90;99.90;;;;;;5104034;28;20039;-67
2021/08/17 04:09:38;;;;;;;8.73;2.47;;;12.90;99.90;;;;;;5100587;28;20066;-67
2021/08/17 04:12:04;;;;;;;7.95;1.55;;;12.90;99.90;;;;;;5106843;27;20046;-66
2021/08/17 04:14:30;;;;;;;16.25;2.42;;;12.80;99.90;;;;;;5107385;27;20076;-66
2021/08/17 04:16:56;;;;;;;9.05;2.00;;;12.80;99.90;;;;;;5108850;27;20090;-66
2021/08/17 04:19:25;;;;;;;12.30;1.80;;;12.80;99.90;;;;;;5107995;27;20043;-66
2021/08/17 04:21:51;;;;;;;10.32;2.33;;;12.80;99.90;;;;;;5110663;27;20043;-66
2021/08/17 04:24:17;;;;;;;11.80;3.00;;;12.80;99.90;;;;;;5105465;27;20047;-66
2021/08/17 04:26:44;;;;;;;11.32;2.22;;;12.80;99.90;;;;;;5109127;27;20031;-66
2021/08/17 04:29:10;;;;;;;15.23;2.03;;;12.80;99.90;;;;;;5108539;27;20122;-66
2021/08/17 04:31:36;;;;;;;9.40;2.63;;;12.80;99.90;;;;;;5110737;27;20485;-66
2021/08/17 04:34:01;;;;;;;13.10;2.00;;;12.80;99.90;;;;;;5107963;28;20050;-66
2021/08/17 04:36:27;;;;;;;15.05;2.72;;;12.90;99.90;;;;;;5104351;28;20051;-66
2021/08/17 04:38:53;;;;;;;11.00;1.90;;;12.90;99.90;;;;;;5107890;27;20044;-66
2021/08/17 04:41:18;;;;;;;11.82;1.85;;;13.00;99.90;;;;;;5106665;27;20150;-67
2021/08/17 04:43:46;;;;;;;12.38;2.08;;;13.00;99.90;;;;;;5109245;27;20036;-67
2021/08/17 04:46:12;;;;;;;11.70;1.88;;;13.10;99.90;;;;;;5109029;27;20031;-66
2021/08/17 04:48:37;;;;;;;15.27;2.53;;;13.20;99.90;;;;;;5106776;28;20040;-66
2021/08/17 04:51:03;;;;;;;12.25;2.08;;;13.20;99.90;;;;;;5104386;27;20463;-66
2021/08/17 04:53:29;;;;;;;11.18;2.22;;;13.30;99.90;;;;;;5107065;27;20039;-66
2021/08/17 04:55:55;;;;;;;10.75;1.70;;;13.40;99.90;;;;;;5111644;27;20024;-66
2021/08/17 04:58:20;;;;;;;11.55;2.15;;;13.40;99.90;;;;;;5102814;28;20035;-66
2021/08/17 05:00:48;;;;;;;8.48;2.10;;;13.50;99.90;;;;;;5108214;27;20031;-67
2021/08/17 05:03:14;;;;;;;16.83;2.78;;;13.60;99.90;;;;;;5103976;27;20039;-67
2021/08/17 05:05:39;;;;;;;10.15;2.15;;;13.70;99.90;;;;;;5107784;27;20542;-67
2021/08/17 05:08:09;;;;;;;9.02;2.67;;;13.80;99.90;;;;;;5108424;28;20039;-67
2021/08/17 05:10:35;;;;;;;9.35;1.90;;;13.80;99.90;;;;;;5102715;28;20050;-66
2021/08/17 05:13:03;;;;;;;10.07;2.60;;;14.00;99.90;;;;;;5100328;28;20113;-66
2021/08/17 05:15:30;;;;;;;16.88;2.97;;;14.00;99.90;;;;;;5099478;27;20038;-67
2021/08/17 05:17:56;;;;;;;14.77;2.63;;;14.10;99.90;;;;;;5098186;28;20395;-66
2021/08/17 05:20:23;;;;;;;10.90;2.20;;;14.10;99.90;;;;;;5095556;28;20048;-67
2021/08/17 05:22:49;;;;;;;14.15;3.13;;;14.20;99.90;;;;;;5099007;28;20040;-66
2021/08/17 05:25:15;;;;;;;10.38;3.03;;;14.20;99.90;;;;;;5097230;28;20035;-67
2021/08/17 05:27:41;;;;;;;12.02;2.47;;;14.30;99.90;;;;;;5097547;28;20043;-66
2021/08/17 05:30:07;;;;;;;18.45;3.00;;;14.40;99.90;;;;;;5098263;28;20040;-66
2021/08/17 05:32:33;;;;;;;13.32;3.45;;;14.40;99.90;;;;;;5097302;28;20032;-67
2021/08/17 05:34:59;;;;;;;9.35;2.65;;;14.50;99.90;;;;;;5096896;28;20057;-67
2021/08/17 05:37:24;;;;;;;11.45;2.72;;;14.50;99.90;;;;;;5103824;28;20048;-66
2021/08/17 05:39:50;;;;;;;10.70;2.70;;;14.60;99.90;;;;;;5093614;28;20043;-67
2021/08/17 05:42:16;;;;;;;13.70;3.65;;;14.70;99.90;;;;;;5093080;28;20042;-67
2021/08/17 05:44:43;;;;;;;12.93;3.60;;;15.00;99.90;;;;;;5096104;28;20319;-67
2021/08/17 05:47:10;;;;;;;9.10;2.67;;;15.10;99.90;;;;;;5095624;28;20093;-67
2021/08/17 05:49:41;;;;;;;11.85;3.47;;;15.10;99.90;;;;;;5092796;28;20034;-67
2021/08/17 05:52:13;;;;;;;11.00;3.75;;;15.20;99.90;;;;;;5096190;28;20036;-67
2021/08/17 05:54:39;;;;;;;14.50;3.78;;;15.30;99.90;;;;;;5094124;28;20035;-67
2021/08/17 05:57:06;;;;;;;9.57;3.13;;;15.60;99.90;;;;;;5097663;28;20058;-67
2021/08/17 05:59:32;;;;;;;12.23;3.38;;;15.70;99.90;;;;;;5094995;28;20417;-67
2021/08/17 06:02:00;;;;;;;11.38;3.35;;;15.70;99.90;;;;;;5095669;28;20047;-67
2021/08/17 06:04:26;;;;;;;14.18;3.30;;;15.60;99.90;;;;;;5094057;28;20036;-67
2021/08/17 06:06:52;;;;;;;10.13;3.78;;;15.50;99.90;;;;;;5094998;28;20333;-66
2021/08/17 06:09:19;;;;;;;8.68;2.95;;;15.40;99.90;;;;;;5096572;28;20079;-66
2021/08/17 06:11:46;;;;;;;16.02;4.75;;;15.40;99.90;;;;;;5098928;28;20042;-66
2021/08/17 06:14:12;;;;;;;11.65;3.47;;;15.30;99.90;;;;;;5103593;28;20559;-67
2021/08/17 06:16:39;;;;;;;9.40;2.75;;;15.30;99.90;;;;;;5100198;27;20047;-67
2021/08/17 06:19:04;;;;;;;12.60;3.05;;;15.40;99.90;;;;;;5102579;28;20032;-67
2021/08/17 06:21:31;;;;;;;12.15;3.70;;;15.30;99.90;;;;;;5098829;28;20050;-67
2021/08/17 06:23:58;;;;;;;15.63;3.53;;;15.30;99.90;;;;;;5101954;27;21496;-67
2021/08/17 06:26:24;;;;;;;12.18;3.80;;;15.30;99.90;;;;;;5106147;28;20096;-67
2021/08/17 06:28:50;;;;;;;7.20;2.72;;;15.40;99.90;;;;;;5106749;28;20043;-67
2021/08/17 06:31:23;;;;;;;10.48;2.72;;;15.60;99.90;;;;;;5104733;27;20550;-67
2021/08/17 06:33:50;;;;;;;10.35;2.75;;;15.80;99.90;;;;;;5104378;28;20044;-67
2021/08/17 06:36:16;;;;;;;10.70;3.72;;;16.10;99.90;;;;;;5106541;27;20049;-67
2021/08/17 06:38:42;;;;;;;8.63;2.58;;;16.50;99.90;;;;;;5104648;28;20050;-67
2021/08/17 06:41:08;;;;;;;10.48;3.10;;;16.80;99.90;;;;;;5104343;28;20047;-67
2021/08/17 06:43:34;;;;;;;12.88;3.65;;;16.80;99.90;;;;;;5100173;28;20381;-67
2021/08/17 06:46:00;;;;;;;9.40;2.63;;;16.70;99.90;;;;;;5099403;28;20032;-67
2021/08/17 06:48:26;;;;;;;10.98;3.00;;;16.60;99.90;;;;;;5101782;28;20036;-67
2021/08/17 06:50:52;;;;;;;7.90;2.38;;;16.50;99.90;;;;;;5100253;28;20051;-67
2021/08/17 06:53:18;;;;;;;10.20;3.15;;;16.40;99.90;;;;;;5100191;28;20146;-67
2021/08/17 06:55:44;;;;;;;11.20;3.38;;;16.30;99.90;;;;;;5100499;28;20527;-67
2021/08/17 06:58:13;;;;;;;6.20;2.17;;;16.20;99.90;;;;;;5105674;28;20386;-67
2021/08/17 07:00:39;;;;;;;7.55;3.05;;;16.10;99.90;;;;;;5102639;28;20050;-67
2021/08/17 07:03:07;;;;;;;12.88;2.95;;;16.00;99.90;;;;;;5105358;28;20051;-67
2021/08/17 07:05:37;;;;;;;8.07;2.47;;;16.00;99.90;;;;;;5101847;28;20076;-67
2021/08/17 07:08:04;;;;;;;8.60;3.25;;;16.00;99.90;;;;;;5102329;28;20032;-67
2021/08/17 07:10:30;;;;;;;7.07;2.63;;;16.00;99.90;;;;;;5099255;28;20036;-67
2021/08/17 07:12:56;;;;;;;10.63;3.05;;;16.00;99.90;;;;;;5104108;28;20032;-67
2021/08/17 07:15:21;;;;;;;8.77;3.53;;;16.10;99.90;;;;;;5108159;28;20032;-67
2021/08/17 07:17:48;;;;;;;6.47;2.75;;;16.30;99.90;;;;;;5103110;28;20043;-67
2021/08/17 07:20:15;;;;;;;13.70;3.75;;;16.40;99.90;;;;;;5101588;28;20094;-67
2021/08/17 07:22:41;;;;;;;8.88;3.22;;;16.50;99.90;;;;;;5101931;28;20081;-67
2021/08/17 07:25:08;;;;;;;8.00;3.63;;;16.80;99.90;;;;;;5098106;28;20122;-66
2021/08/17 07:27:34;;;;;;;9.90;3.13;;;16.80;99.90;;;;;;5103787;28;20375;-67
2021/08/17 07:30:00;;;;;;;11.80;3.10;;;16.90;99.90;;;;;;5101991;28;20113;-67
2021/08/17 07:32:26;;;;;;;10.35;3.42;;;16.90;99.90;;;;;;5106187;28;20035;-67
2021/08/17 07:34:52;;;;;;;12.73;2.97;;;17.00;99.90;;;;;;5103776;28;20058;-67
2021/08/17 07:37:18;;;;;;;7.65;3.00;;;17.00;99.90;;;;;;5104052;28;20066;-67
2021/08/17 07:39:44;;;;;;;8.63;3.72;;;17.10;99.90;;;;;;5099667;28;20067;-67
2021/08/17 07:42:09;;;;;;;9.32;3.35;;;17.10;99.90;;;;;;5100478;28;20039;-67
2021/08/17 07:44:35;;;;;;;8.13;3.95;;;17.20;99.90;;;;;;5098821;28;20115;-67
2021/08/17 07:47:06;;;;;;;11.05;4.40;;;17.20;99.90;;;;;;5102999;28;20440;-67
2021/08/17 07:49:32;;;;;;;13.23;4.00;;;17.30;99.90;;;;;;5102613;28;20035;-67
2021/08/17 07:51:59;;;;;;;10.32;3.90;;;17.40;99.90;;;;;;5102693;28;20472;-67
2021/08/17 07:54:25;;;;;;;9.20;4.50;;;17.50;99.90;;;;;;5102548;28;20050;-67
2021/08/17 07:56:51;;;;;;;14.57;4.63;;;17.60;99.90;;;;;;5103190;28;20031;-67
2021/08/17 07:59:16;;;;;;;9.95;4.65;;;17.70;99.90;;;;;;5103344;28;20085;-67
2021/08/17 08:01:42;;;;;;;11.20;4.32;;;17.70;99.90;;;;;;5106448;28;20092;-67
2021/08/17 08:04:08;;;;;;;10.65;4.72;;;17.70;99.90;;;;;;5098812;28;20055;-67
2021/08/17 08:06:34;;;;;;;10.98;4.93;;;17.60;99.90;;;;;;5102643;28;20035;-67
2021/08/17 08:08:59;;;;;;;15.07;5.15;;;17.70;99.90;;;;;;5100614;28;20489;-67
2021/08/17 08:11:25;;;;;;;11.25;5.90;;;17.60;99.90;;;;;;5104971;28;20032;-66
2021/08/17 08:13:51;;;;;;;11.90;5.88;;;17.60;99.90;;;;;;5106331;28;20036;-67
2021/08/17 08:16:16;;;;;;;12.77;6.30;;;17.60;99.90;;;;;;5104827;28;20477;-67
2021/08/17 08:18:42;;;;;;;14.07;6.03;;;17.60;99.90;;;;;;5105852;28;20069;-67
2021/08/17 08:21:08;;;;;;;9.80;5.13;;;17.60;99.90;;;;;;5103994;28;20035;-67
2021/08/17 08:23:36;;;;;;;12.38;6.05;;;17.60;99.90;;;;;;5104809;28;20039;-67
2021/08/17 08:26:03;;;;;;;14.70;6.22;;;17.50;99.90;;;;;;5104569;28;20051;-67
2021/08/17 08:28:28;;;;;;;12.52;5.65;;;17.40;99.90;;;;;;5131375;27;20062;-67
2021/08/17 08:30:54;;;;;;;16.13;6.22;;;17.40;99.90;;;;;;5105403;27;20044;-66
2021/08/17 08:33:20;;;;;;;12.15;6.55;;;17.30;99.90;;;;;;5106363;28;20141;-67
2021/08/17 08:35:45;;;;;;;16.58;6.22;;;17.30;99.90;;;;;;5103949;28;20481;-66
2021/08/17 08:38:11;;;;;;;13.13;6.40;;;17.30;99.90;;;;;;5103623;28;20043;-67
2021/08/17 08:40:37;;;;;;;17.65;6.72;;;17.30;99.90;;;;;;5105621;27;20482;-66
2021/08/17 08:43:03;;;;;;;14.32;6.88;;;17.40;99.90;;;;;;5109483;27;20111;-66
2021/08/17 08:45:29;;;;;;;20.73;7.28;;;17.30;99.90;;;;;;5105735;27;20549;-67
2021/08/17 08:47:55;;;;;;;14.23;6.93;;;17.40;99.90;;;;;;5105004;28;20127;-67
2021/08/17 08:50:21;;;;;;;17.38;7.25;;;17.40;99.90;;;;;;5103968;28;20107;-66
2021/08/17 08:52:47;;;;;;;20.77;7.90;;;17.50;99.90;;;;;;5105879;27;20130;-66
2021/08/17 08:55:13;;;;;;;17.23;6.68;;;17.60;99.90;;;;;;5102928;27;20047;-66
2021/08/17 08:57:39;;;;;;;18.85;8.32;;;17.70;99.90;;;;;;5105335;28;20039;-66
2021/08/17 09:00:09;;;;;;;13.07;7.07;;;17.70;99.90;;;;;;5103161;27;20054;-66
2021/08/17 09:02:35;;;;;;;13.13;7.05;;;17.80;99.90;;;;;;5105873;27;20069;-67
2021/08/17 09:05:02;;;;;;;19.30;8.10;;;17.90;99.90;;;;;;5103836;28;20035;-66
2021/08/17 09:07:37;;;;;;;14.32;8.32;;;18.00;99.90;;;;;;5100274;27;20050;-66
2021/08/17 09:10:08;;;;;;;;;;;17.90;99.90;;;;;;5101369;27;20094;-66
2021/08/17 09:12:39;;;;;;;14.98;7.88;;;17.90;99.90;;;;;;5105918;28;20328;-67
2021/08/17 09:15:10;;;;;;;18.85;7.75;;;17.80;99.90;;;;;;5103935;28;20439;-66
2021/08/17 09:17:36;;;;;;;19.58;7.43;;;17.80;99.90;;;;;;5104937;28;20508;-66
2021/08/17 09:20:03;;;;;;;19.15;8.15;;;17.80;99.90;;;;;;5103492;28;20044;-66
2021/08/17 09:22:31;;;;;;;14.38;7.55;;;17.80;99.90;;;;;;5100938;28;20056;-66
2021/08/17 09:24:59;;;;;;;17.55;8.45;;;17.80;99.90;;;;;;5099632;28;20489;-66
2021/08/17 09:27:28;;;;;;;15.48;7.90;;;17.80;99.90;;;;;;5102826;28;20359;-67
2021/08/17 09:30:10;;;;;;;15.50;8.38;;;17.70;99.90;;;;;;5106032;28;20032;-66
2021/08/17 09:32:55;;;;;;;18.15;9.13;;;17.80;99.90;;;;;;5103561;27;20036;-66
2021/08/17 09:35:22;;;;;;;12.13;7.35;;;17.90;99.90;;;;;;5102469;28;20489;-66
2021/08/17 09:38:09;;;;;;;16.13;8.80;;;18.00;99.90;;;;;;5100120;28;20108;-66
2021/08/17 09:40:36;;;;;;;20.80;8.65;;;18.20;99.90;;;;;;5106245;27;20055;-66
2021/08/17 09:43:16;;;;;;;18.88;10.18;;;18.50;99.90;;;;;;5108319;28;20420;-67
2021/08/17 09:45:42;;;;;;;14.70;8.15;;;18.80;99.90;;;;;;5106242;28;20548;-66
2021/08/17 09:48:11;;;;;;;18.63;8.88;;;19.20;99.90;;;;;;5101974;28;20100;-67
2021/08/17 09:50:38;;;;;;;16.48;9.30;;;19.60;99.90;;;;;;5103281;28;20055;-67
2021/08/17 09:53:18;;;;;;;16.88;8.82;;;19.70;99.90;;;;;;5105241;27;20039;-67
2021/08/17 09:55:51;;;;;;;17.10;7.93;;;19.70;99.90;;;;;;5103063;28;20070;-67
2021/08/17 09:58:20;;;;;;;18.17;9.50;;;19.70;99.90;;;;;;5103067;28;20047;-67
2021/08/17 10:00:47;;;;;;;18.98;9.50;;;19.90;99.90;;;;;;5101287;28;20047;-67
2021/08/17 10:03:20;;;;;;;17.60;9.13;;;20.10;99.90;;;;;;5109037;27;20035;-67
2021/08/17 10:05:47;;;;;;;18.92;8.60;;;20.10;99.90;;;;;;5103823;28;20042;-67
2021/08/17 10:08:16;;;;;;;18.55;9.02;;;20.10;99.90;;;;;;5103680;28;20047;-67
2021/08/17 10:10:44;;;;;;;22.80;10.43;;;20.20;99.90;;;;;;5101216;28;20039;-67
2021/08/17 10:13:12;;;;;;;18.60;9.50;;;20.10;99.90;;;;;;5102511;28;20039;-67
2021/08/17 10:15:39;;;;;;;16.58;9.13;;;20.10;99.90;;;;;;5102433;28;20040;-67
2021/08/17 10:18:07;;;;;;;16.38;9.75;;;20.40;99.90;;;;;;5105547;28;20067;-67
2021/08/17 10:20:33;;;;;;;17.92;9.98;;;20.40;99.90;;;;;;5101615;27;20040;-67
2021/08/17 10:23:00;;;;;;;17.02;9.40;;;20.50;99.90;;;;;;5100368;28;20042;-67
2021/08/17 10:25:26;;;;;;;45.72;10.80;;;20.60;99.90;;;;;;5104050;27;20050;-67
2021/08/17 10:27:52;;;;;;;16.05;9.10;;;20.80;99.90;;;;;;5102065;28;20066;-67
2021/08/17 10:30:22;;;;;;;13.82;8.13;;;20.90;99.90;;;;;;5107945;27;20051;-67
2021/08/17 10:32:50;;;;;;;20.63;9.05;;;20.80;99.90;;;;;;5101372;28;20071;-67
2021/08/17 10:35:34;;;;;;;11.63;6.72;;;20.80;99.90;;;;;;5102219;28;20036;-67
2021/08/17 10:38:12;;;;;;;19.88;8.77;;;20.70;99.90;;;;;;5099671;28;20040;-67
2021/08/17 10:40:52;;;;;;;18.38;9.02;;;20.70;99.90;;;;;;5104139;27;20042;-67
2021/08/17 10:43:24;;;;;;;15.88;7.13;;;20.80;99.90;;;;;;5103217;28;20116;-67
2021/08/17 10:45:55;;;;;;;11.27;7.20;;;20.80;99.90;;;;;;5101621;28;20496;-67
2021/08/17 10:48:49;;;;;;;11.02;6.85;;;20.70;99.90;;;;;;5102051;28;20067;-67
2021/08/17 10:51:21;;;;;;;11.05;6.50;;;20.60;99.90;;;;;;5099114;28;20039;-67
2021/08/17 10:54:05;;;;;;;11.20;6.45;;;20.40;99.90;;;;;;5101955;28;20339;-67
2021/08/17 10:56:33;;;;;;;13.25;6.93;;;20.40;99.90;;;;;;5101600;28;20421;-67
2021/08/17 10:58:59;;;;;;;8.98;7.10;;;20.40;99.90;;;;;;5101302;28;20078;-67
2021/08/17 11:01:30;;;;;;;11.73;7.57;;;20.40;99.90;;;;;;5100867;28;20474;-67
2021/08/17 11:04:09;;;;;;;8.52;6.57;;;20.30;99.90;;;;;;5104689;28;20416;-67
2021/08/17 11:06:41;;;;;;;19.20;8.45;;;20.30;99.90;;;;;;5099398;28;20385;-67
2021/08/17 11:09:11;;;;;;;11.13;6.68;;;20.10;99.90;;;;;;5101562;28;20105;-67
2021/08/17 11:11:37;;;;;;;13.43;7.78;;;19.90;99.90;;;;;;5103573;28;20066;-67
2021/08/17 11:14:09;;;;;;;13.23;6.18;;;19.90;99.90;;;;;;5105970;28;20449;-67
2021/08/17 11:16:46;;;;;;;10.77;7.35;;;19.80;99.90;;;;;;5099202;28;20107;-67
2021/08/17 11:19:13;;;;;;;12.15;6.75;;;19.80;99.90;;;;;;5100674;28;20039;-67
2021/08/17 11:21:57;;;;;;;10.73;6.72;;;19.70;99.90;;;;;;5102378;28;20097;-67
2021/08/17 11:24:30;;;;;;;9.20;6.40;;;19.70;99.90;;;;;;5098593;28;20101;-67
2021/08/17 11:27:09;;;;;;;11.80;6.75;;;19.70;99.90;;;;;;5099426;28;20047;-67
2021/08/17 11:29:54;;;;;;;10.80;6.28;;;19.70;99.90;;;;;;5100012;28;20089;-67
2021/08/17 11:32:33;;;;;;;11.52;6.75;;;19.80;99.90;;;;;;5100346;28;20393;-67
2021/08/17 11:35:11;;;;;;;16.63;7.43;;;19.70;99.90;;;;;;5102839;28;20115;-67
2021/08/17 11:37:42;;;;;;;11.70;6.35;;;19.70;99.90;;;;;;5100347;28;20048;-65
2021/08/17 11:40:09;;;;;;;9.10;6.70;;;19.90;99.90;;;;;;5102343;28;20534;-67
2021/08/17 11:42:38;;;;;;;10.73;5.72;;;19.90;99.90;;;;;;5098763;28;20103;-67
2021/08/17 11:45:09;;;;;;;9.07;6.00;;;19.90;99.90;;;;;;5104120;28;20134;-67
2021/08/17 11:47:36;;;;;;;8.57;5.65;;;20.00;99.90;;;;;;5107279;28;20032;-67
2021/08/17 11:50:08;;;;;;;13.10;6.15;;;20.10;99.90;;;;;;5102521;28;20035;-67
2021/08/17 11:52:38;;;;;;;10.07;5.32;;;20.10;99.90;;;;;;5103047;28;20043;-67
2021/08/17 11:55:09;;;;;;;9.25;6.00;;;20.20;99.90;;;;;;5103437;28;20997;-67
2021/08/17 11:57:42;;;;;;;13.55;6.30;;;20.20;99.90;;;;;;5107090;28;20100;-67
2021/08/17 12:00:13;;;;;;;11.10;5.93;;;20.20;99.90;;;;;;5104378;28;20142;-67
2021/08/17 12:02:41;;;;;;;11.57;6.68;;;20.00;99.90;;;;;;5102548;28;20110;-67
2021/08/17 12:05:10;;;;;;;16.13;6.93;;;20.10;99.90;;;;;;5107471;27;20040;-67
2021/08/17 12:07:35;;;;;;;11.65;5.95;;;20.10;99.90;;;;;;5102849;28;20032;-67
2021/08/17 12:10:04;;;;;;;13.45;6.40;;;20.10;99.90;;;;;;5107664;28;20406;-67
2021/08/17 12:12:52;;;;;;;10.23;5.63;;;20.10;99.90;;;;;;5109218;28;20040;-67
2021/08/17 12:15:17;;;;;;;17.05;6.30;;;20.10;99.90;;;;;;5108381;28;20039;-67
2021/08/17 12:18:08;;;;;;;11.85;5.70;;;20.10;99.90;;;;;;5100114;28;20366;-67
2021/08/17 12:21:10;;;;;;;11.27;5.65;;;20.00;99.90;;;;;;5102941;28;20098;-65
2021/08/17 12:23:38;;;;;;;9.32;5.13;;;19.90;99.90;;;;;;5098716;28;20565;-65
2021/08/17 12:26:28;;;;;;;9.73;5.40;;;19.90;99.90;;;;;;5104974;28;20055;-65
2021/08/17 12:28:56;;;;;;;9.27;5.18;;;20.00;99.90;;;;;;5100048;28;20493;-67
2021/08/17 12:31:26;;;;;;;9.15;4.57;;;19.90;99.90;;;;;;5101912;28;20044;-65
2021/08/17 12:33:57;;;;;;;15.75;5.50;;;19.80;99.90;;;;;;5104664;27;20077;-65
2021/08/17 12:36:49;;;;;;;6.85;3.88;;;19.70;99.90;;;;;;5105136;27;20077;-65
2021/08/17 12:39:19;;;;;;;10.52;4.53;;;19.60;99.90;;;;;;5102904;28;20194;-65
2021/08/17 12:41:49;;;;;;;14.07;4.68;;;19.40;99.90;;;;;;5104858;28;20063;-65